Time;durP1;ratioP1;P1;durP2;ratioP2;P2;SDS_P1;SDS_P2;PMS_P1;PMS_P2;Temp;Humidity;BMP_temperature;BMP_pressure;BME280_temperature;BME280_humidity;BME280_pressure;Samples;Min_cycle;Max_cycle;Signal;HPM_P1;HPM_P2
2021/07/07 00:00:11;;;;;;;;;;;16.20;81.60;;;;;;5053584;28;20003;-75
2021/07/07 00:02:37;;;;;;;;;;;16.20;81.70;;;;;;5066626;28;19921;-75
2021/07/07 00:05:04;;;;;;;;;;;16.20;81.70;;;;;;5053429;28;20329;-75
2021/07/07 00:07:31;;;;;;;;;;;16.20;81.70;;;;;;5052657;28;19924;-75
2021/07/07 00:09:57;;;;;;;;;;;16.20;81.80;;;;;;5024115;28;19995;-75
2021/07/07 00:12:23;;;;;;;;;;;16.10;81.70;;;;;;5049779;28;19920;-75
2021/07/07 00:14:49;;;;;;;;;;;16.10;81.70;;;;;;5068078;28;20046;-76
2021/07/07 00:17:15;;;;;;;;;;;16.10;81.90;;;;;;5053380;28;19921;-75
2021/07/07 00:19:42;;;;;;;;;;;16.10;81.90;;;;;;5031766;28;20035;-76
2021/07/07 00:22:09;;;;;;;;;;;16.00;81.90;;;;;;5045801;28;19962;-75
2021/07/07 00:24:35;;;;;;;;;;;16.00;81.90;;;;;;5053109;28;19971;-75
2021/07/07 00:27:01;;;;;;;;;;;16.00;82.00;;;;;;5052836;28;20419;-75
2021/07/07 00:29:28;;;;;;;;;;;16.00;82.00;;;;;;5053125;28;19924;-75
2021/07/07 00:31:54;;;;;;;;;;;15.90;82.00;;;;;;5052429;28;20019;-76
2021/07/07 00:34:20;;;;;;;;;;;15.90;81.90;;;;;;5052556;28;19977;-75
2021/07/07 00:36:46;;;;;;;;;;;15.90;82.00;;;;;;5052483;28;20352;-75
2021/07/07 00:39:12;;;;;;;;;;;15.80;81.90;;;;;;5053079;28;20317;-75
2021/07/07 00:41:38;;;;;;;;;;;15.80;82.10;;;;;;5052567;28;20292;-75
2021/07/07 00:44:04;;;;;;;;;;;15.80;82.10;;;;;;5052912;28;19920;-75
2021/07/07 00:46:30;;;;;;;;;;;15.80;82.10;;;;;;5053257;28;19924;-75
2021/07/07 00:48:57;;;;;;;;;;;15.70;82.20;;;;;;5054590;28;19969;-75
2021/07/07 00:51:23;;;;;;;;;;;15.70;82.30;;;;;;5026442;28;20335;-75
2021/07/07 00:53:49;;;;;;;;;;;15.60;82.30;;;;;;5052602;28;19974;-75
2021/07/07 00:56:17;;;;;;;;;;;15.60;82.40;;;;;;5052831;28;20361;-75
2021/07/07 00:58:44;;;;;;;;;;;15.60;82.40;;;;;;5052889;28;20015;-75
2021/07/07 01:01:10;;;;;;;;;;;15.60;82.40;;;;;;5052951;28;20003;-75
2021/07/07 01:03:36;;;;;;;;;;;15.50;82.40;;;;;;5049799;28;19920;-75
2021/07/07 01:06:06;;;;;;;;;;;15.50;82.30;;;;;;5044331;28;20381;-74
2021/07/07 01:08:34;;;;;;;;;;;15.50;82.20;;;;;;5039513;28;19921;-76
2021/07/07 01:11:03;;;;;;;;;;;15.50;82.20;;;;;;5051937;28;19924;-76
2021/07/07 01:13:31;;;;;;;;;;;15.50;82.20;;;;;;5054390;28;19925;-76
2021/07/07 01:15:58;;;;;;;;;;;15.40;82.00;;;;;;5056226;28;19927;-75
2021/07/07 01:18:24;;;;;;;;;;;15.40;82.20;;;;;;5056118;28;19964;-75
2021/07/07 01:20:50;;;;;;;;;;;15.40;82.20;;;;;;5056188;28;19928;-76
2021/07/07 01:23:17;;;;;;;;;;;15.30;82.30;;;;;;5056392;28;19921;-76
2021/07/07 01:25:44;;;;;;;;;;;15.30;82.10;;;;;;5056057;28;19990;-76
2021/07/07 01:28:10;;;;;;;;;;;15.30;82.10;;;;;;5056041;28;20299;-76
2021/07/07 01:30:36;;;;;;;;;;;15.20;82.00;;;;;;5056436;28;19935;-76
2021/07/07 01:33:02;;;;;;;;;;;15.20;82.00;;;;;;5055723;28;19921;-76
2021/07/07 01:35:28;;;;;;;;;;;15.20;82.00;;;;;;5055295;28;19947;-76
2021/07/07 01:37:55;;;;;;;;;;;15.20;82.00;;;;;;5056044;28;19964;-76
2021/07/07 01:40:23;;;;;;;;;;;15.10;82.00;;;;;;5056119;28;19943;-75
2021/07/07 01:42:50;;;;;;;;;;;15.10;82.20;;;;;;5055624;28;19921;-76
2021/07/07 01:45:17;;;;;;;;;;;15.10;82.30;;;;;;5055889;28;20017;-76
2021/07/07 01:47:43;;;;;;;;;;;15.00;82.20;;;;;;5033993;28;19959;-76
2021/07/07 01:50:11;;;;;;;;;;;15.00;82.30;;;;;;5030587;28;19925;-76
2021/07/07 01:52:37;;;;;;;;;;;15.00;82.20;;;;;;5055809;28;19987;-76
2021/07/07 01:55:07;;;;;;;;;;;14.90;82.10;;;;;;5055658;28;20448;-76
2021/07/07 01:57:46;;;;;;;;;;;14.90;81.90;;;;;;5055686;28;19982;-76
2021/07/07 02:00:15;;;;;;;;;;;14.90;82.00;;;;;;5055777;28;19921;-76
2021/07/07 02:02:41;;;;;;;;;;;14.90;81.90;;;;;;5055527;28;20019;-76
2021/07/07 02:05:08;;;;;;;;;;;14.90;82.00;;;;;;5055233;28;20378;-76
2021/07/07 02:07:34;;;;;;;;;;;14.80;81.80;;;;;;5055330;28;19920;-76
2021/07/07 02:10:03;;;;;;;;;;;14.80;81.80;;;;;;5054163;28;19960;-76
2021/07/07 02:12:29;;;;;;;;;;;14.80;81.70;;;;;;5055554;28;20003;-76
2021/07/07 02:14:55;;;;;;;;;;;14.80;81.70;;;;;;5042703;28;19921;-76
2021/07/07 02:17:21;;;;;;;;;;;14.80;81.50;;;;;;5045066;28;20394;-75
2021/07/07 02:19:47;;;;;;;;;;;14.80;81.50;;;;;;5052593;28;20384;-76
2021/07/07 02:22:13;;;;;;;;;;;14.80;81.30;;;;;;5057996;28;20011;-76
2021/07/07 02:24:39;;;;;;;;;;;14.70;81.10;;;;;;5058323;28;19995;-76
2021/07/07 02:27:05;;;;;;;;;;;14.70;80.90;;;;;;5055036;28;19971;-76
2021/07/07 02:29:32;;;;;;;;;;;14.70;80.90;;;;;;5059163;28;20069;-76
2021/07/07 02:31:58;;;;;;;;;;;14.60;80.70;;;;;;5037327;28;19928;-76
2021/07/07 02:34:24;;;;;;;;;;;14.60;80.80;;;;;;5054757;28;19924;-76
2021/07/07 02:36:50;;;;;;;;;;;14.60;81.00;;;;;;5054737;28;19920;-76
2021/07/07 02:39:16;;;;;;;;;;;14.60;80.70;;;;;;5055173;28;20046;-76
2021/07/07 02:41:42;;;;;;;;;;;14.60;80.70;;;;;;5054490;28;20011;-76
2021/07/07 02:44:09;;;;;;;;;;;14.50;80.60;;;;;;5054945;28;19987;-76
2021/07/07 02:46:35;;;;;;;;;;;14.50;80.60;;;;;;5054841;28;19921;-76
2021/07/07 02:49:01;;;;;;;;;;;14.50;80.50;;;;;;5054287;28;20403;-76
2021/07/07 02:51:27;;;;;;;;;;;14.50;80.60;;;;;;5054851;28;19921;-75
2021/07/07 02:53:53;;;;;;;;;;;14.50;80.60;;;;;;5054770;28;20125;-76
2021/07/07 02:56:21;;;;;;;;;;;14.40;80.50;;;;;;5054495;28;19920;-76
2021/07/07 02:58:47;;;;;;;;;;;14.40;80.50;;;;;;5054238;28;19936;-76
2021/07/07 03:01:13;;;;;;;;;;;14.40;80.50;;;;;;5054219;28;20062;-76
2021/07/07 03:03:39;;;;;;;;;;;14.40;80.70;;;;;;5054245;28;20494;-76
2021/07/07 03:06:05;;;;;;;;;;;14.40;80.50;;;;;;5054528;28;19920;-76
2021/07/07 03:08:33;;;;;;;;;;;14.40;80.40;;;;;;5067103;28;20006;-76
2021/07/07 03:11:00;;;;;;;;;;;14.40;80.40;;;;;;5045187;28;19979;-76
2021/07/07 03:13:26;;;;;;;;;;;14.40;80.40;;;;;;5054326;28;20003;-76
2021/07/07 03:15:53;;;;;;;;;;;14.40;80.40;;;;;;5053561;28;19932;-76
2021/07/07 03:18:19;;;;;;;;;;;14.40;80.60;;;;;;5054037;28;19921;-76
2021/07/07 03:20:46;;;;;;;;;;;14.40;80.40;;;;;;5054104;28;19921;-76
2021/07/07 03:23:14;;;;;;;;;;;14.40;80.50;;;;;;5054024;28;19925;-76
2021/07/07 03:25:40;;;;;;;;;;;14.30;80.60;;;;;;5053901;28;19921;-76
2021/07/07 03:28:06;;;;;;;;;;;14.30;80.50;;;;;;5053768;28;20008;-76
2021/07/07 03:30:33;;;;;;;;;;;14.30;80.60;;;;;;5053670;28;20309;-76
2021/07/07 03:32:59;;;;;;;;;;;14.20;80.60;;;;;;5053823;28;19932;-76
2021/07/07 03:35:25;;;;;;;;;;;14.30;80.70;;;;;;5053591;28;19921;-75
2021/07/07 03:37:52;;;;;;;;;;;14.20;80.70;;;;;;5053831;28;20401;-76
2021/07/07 03:40:19;;;;;;;;;;;14.20;80.80;;;;;;5047425;28;19963;-76
2021/07/07 03:42:45;;;;;;;;;;;14.20;80.70;;;;;;5053927;28;19920;-76
2021/07/07 03:45:13;;;;;;;;;;;14.10;81.00;;;;;;5034527;28;19921;-76
2021/07/07 03:47:40;;;;;;;;;;;14.10;81.10;;;;;;5053240;28;20017;-75
2021/07/07 03:50:07;;;;;;;;;;;14.10;81.40;;;;;;5045771;28;20393;-76
2021/07/07 03:52:33;;;;;;;;;;;14.00;81.50;;;;;;5053716;28;19943;-76
2021/07/07 03:55:00;;;;;;;;;;;14.00;81.50;;;;;;5053252;28;19975;-76
2021/07/07 03:57:26;;;;;;;;;;;14.00;81.50;;;;;;5053391;28;19999;-75
2021/07/07 03:59:52;;;;;;;;;;;14.00;81.40;;;;;;5053473;28;20283;-76
2021/07/07 04:02:18;;;;;;;;;;;14.00;81.50;;;;;;5055179;28;19956;-76
2021/07/07 04:04:44;;;;;;;;;;;14.00;81.50;;;;;;5053073;28;19920;-76
2021/07/07 04:07:10;;;;;;;;;;;14.00;81.50;;;;;;5052225;28;19929;-76
2021/07/07 04:09:37;;;;;;;;;;;14.00;81.50;;;;;;5053037;28;19928;-76
2021/07/07 04:12:03;;;;;;;;;;;14.00;82.40;;;;;;5051661;28;19956;-76
2021/07/07 04:14:29;;;;;;;;;;;14.00;81.40;;;;;;5048747;28;19967;-75
2021/07/07 04:16:56;;;;;;;;;;;14.00;81.40;;;;;;5052837;28;20444;-75
2021/07/07 04:19:23;;;;;;;;;;;14.10;81.40;;;;;;5032124;28;19972;-76
2021/07/07 04:21:49;;;;;;;;;;;14.00;81.40;;;;;;5050520;28;20388;-74
2021/07/07 04:24:16;;;;;;;;;;;14.00;81.30;;;;;;5046670;28;20007;-76
2021/07/07 04:26:42;;;;;;;;;;;14.00;81.50;;;;;;5051287;28;20037;-76
2021/07/07 04:29:08;;;;;;;;;;;14.00;81.70;;;;;;5051964;28;20015;-76
2021/07/07 04:31:35;;;;;;;;;;;13.90;81.90;;;;;;5045230;28;19921;-76
2021/07/07 04:34:02;;;;;;;;;;;13.90;82.20;;;;;;5052598;28;19928;-76
2021/07/07 04:36:28;;;;;;;;;;;13.90;82.20;;;;;;5028898;28;19928;-76
2021/07/07 04:38:54;;;;;;;;;;;13.90;82.20;;;;;;5046875;28;20289;-76
2021/07/07 04:41:20;;;;;;;;;;;13.90;82.00;;;;;;5049733;28;20093;-76
2021/07/07 04:43:46;;;;;;;;;;;13.90;82.00;;;;;;5052055;28;20018;-76
2021/07/07 04:46:13;;;;;;;;;;;13.90;81.90;;;;;;5049123;28;19947;-76
2021/07/07 04:48:39;;;;;;;;;;;14.00;81.80;;;;;;5061310;28;19924;-76
2021/07/07 04:51:05;;;;;;;;;;;13.90;81.70;;;;;;5049449;28;19956;-76
2021/07/07 04:53:31;;;;;;;;;;;13.80;81.90;;;;;;5029771;28;20293;-76
2021/07/07 04:55:58;;;;;;;;;;;13.80;82.30;;;;;;5052042;28;20360;-76
2021/07/07 04:58:25;;;;;;;;;;;13.70;82.50;;;;;;5050546;28;20420;-75
2021/07/07 05:00:52;;;;;;;;;;;13.70;82.60;;;;;;5052137;28;19972;-76
2021/07/07 05:03:18;;;;;;;;;;;13.70;82.70;;;;;;5042229;28;19963;-75
2021/07/07 05:05:45;;;;;;;;;;;13.70;82.90;;;;;;5050599;28;20017;-75
2021/07/07 05:08:11;;;;;;;;;;;13.70;83.00;;;;;;5051031;28;19921;-75
2021/07/07 05:10:38;;;;;;;;;;;13.70;82.70;;;;;;5052306;28;19920;-75
2021/07/07 05:13:05;;;;;;;;;;;13.80;82.40;;;;;;5033249;28;19920;-75
2021/07/07 05:15:32;;;;;;;;;;;13.80;81.90;;;;;;5051020;28;20313;-74
2021/07/07 05:17:58;;;;;;;;;;;13.80;82.00;;;;;;5051650;28;19935;-78
2021/07/07 05:20:24;;;;;;;;;;;13.80;82.10;;;;;;5052456;28;19978;-75
2021/07/07 05:22:50;;;;;;;;;;;13.80;82.50;;;;;;5051872;28;20272;-74
2021/07/07 05:25:17;;;;;;;;;;;13.80;82.20;;;;;;5051730;28;19967;-74
2021/07/07 05:27:44;;;;;;;;;;;13.80;82.50;;;;;;5051048;28;19976;-75
2021/07/07 05:30:11;;;;;;;;;;;13.70;82.90;;;;;;5033107;28;19921;-72
2021/07/07 05:32:38;;;;;;;;;;;13.80;83.00;;;;;;5032914;28;20395;-75
2021/07/07 05:35:05;;;;;;;;;;;13.80;82.80;;;;;;5049571;28;19924;-75
2021/07/07 05:37:32;;;;;;;;;;;13.90;82.70;;;;;;5051390;28;20380;-75
2021/07/07 05:39:58;;;;;;;;;;;13.90;82.30;;;;;;5050567;28;19928;-76
2021/07/07 05:42:24;;;;;;;;;;;13.90;82.70;;;;;;5051274;28;20385;-77
2021/07/07 05:44:52;;;;;;;;;;;14.00;82.60;;;;;;5049045;28;20360;-77
2021/07/07 05:47:18;;;;;;;;;;;14.10;82.50;;;;;;5051269;28;19928;-77
2021/07/07 05:49:45;;;;;;;;;;;14.20;81.90;;;;;;5042963;28;19951;-77
2021/07/07 05:52:11;;;;;;;;;;;14.20;81.50;;;;;;5048169;28;19995;-76
2021/07/07 05:54:38;;;;;;;;;;;14.30;81.50;;;;;;5048410;28;20399;-76
2021/07/07 05:57:04;;;;;;;;;;;14.30;81.20;;;;;;5048640;28;20334;-76
2021/07/07 05:59:30;;;;;;;;;;;14.40;81.00;;;;;;5051248;28;19971;-77
2021/07/07 06:01:56;;;;;;;;;;;14.50;80.60;;;;;;5052395;28;20011;-77
2021/07/07 06:04:22;;;;;;;;;;;14.50;80.40;;;;;;5049467;28;20008;-77
2021/07/07 06:06:48;;;;;;;;;;;14.50;80.50;;;;;;5047175;28;20058;-76
2021/07/07 06:09:14;;;;;;;;;;;14.40;80.80;;;;;;5027199;28;19920;-76
2021/07/07 06:11:41;;;;;;;;;;;14.50;80.70;;;;;;5046051;28;20018;-76
2021/07/07 06:14:07;;;;;;;;;;;14.50;80.70;;;;;;5056017;28;19928;-77
2021/07/07 06:16:33;;;;;;;;;;;14.50;80.40;;;;;;5046522;28;19928;-77
2021/07/07 06:18:59;;;;;;;;;;;14.60;80.40;;;;;;5055095;28;19967;-75
2021/07/07 06:21:26;;;;;;;;;;;14.60;80.20;;;;;;5052018;28;19967;-76
2021/07/07 06:23:52;;;;;;;;;;;14.70;80.00;;;;;;5051244;28;19946;-76
2021/07/07 06:26:18;;;;;;;;;;;14.70;80.20;;;;;;5050271;28;20065;-76
2021/07/07 06:28:44;;;;;;;;;;;14.80;80.10;;;;;;5052315;28;20038;-77
2021/07/07 06:31:10;;;;;;;;;;;14.80;80.00;;;;;;5051170;28;19935;-77
2021/07/07 06:33:36;;;;;;;;;;;14.80;79.50;;;;;;5052022;28;20011;-76
2021/07/07 06:36:03;;;;;;;;;;;14.80;79.60;;;;;;5047818;28;20011;-77
2021/07/07 06:38:29;;;;;;;;;;;14.90;79.90;;;;;;5051850;28;19999;-76
2021/07/07 06:40:55;;;;;;;;;;;14.90;79.60;;;;;;5046965;28;19924;-77
2021/07/07 06:43:21;;;;;;;;;;;15.00;79.70;;;;;;5032799;28;19921;-77
2021/07/07 06:45:47;;;;;;;;;;;15.00;79.40;;;;;;5053516;28;19924;-77
2021/07/07 06:48:13;;;;;;;;;;;15.10;79.20;;;;;;5035623;28;19927;-77
2021/07/07 06:50:40;;;;;;;;;;;15.10;80.40;;;;;;5044015;28;19968;-76
2021/07/07 06:53:06;;;;;;;;;;;15.20;79.50;;;;;;5053845;28;19921;-76
2021/07/07 06:55:32;;;;;;;;;;;15.20;79.10;;;;;;5048984;28;20003;-77
2021/07/07 06:57:58;;;;;;;;;;;15.20;79.30;;;;;;5053808;28;19955;-76
2021/07/07 07:00:25;;;;;;;;;;;15.30;78.80;;;;;;5052616;28;19971;-76
2021/07/07 07:02:51;;;;;;;;;;;15.40;78.30;;;;;;5053507;28;19952;-76
2021/07/07 07:05:18;;;;;;;;;;;15.50;78.40;;;;;;5041277;28;20003;-76
2021/07/07 07:07:45;;;;;;;;;;;15.50;78.20;;;;;;5050167;28;20004;-76
2021/07/07 07:10:12;;;;;;;;;;;15.60;77.90;;;;;;5052737;28;20432;-76
2021/07/07 07:12:40;;;;;;;;;;;15.80;78.10;;;;;;5053410;28;20007;-76
2021/07/07 07:15:08;;;;;;;;;;;15.80;77.90;;;;;;5054898;28;19924;-76
2021/07/07 07:17:34;;;;;;;;;;;15.90;76.70;;;;;;5053246;28;20007;-76
2021/07/07 07:20:01;;;;;;;;;;;16.00;76.50;;;;;;5050579;28;20340;-76
2021/07/07 07:22:27;;;;;;;;;;;16.10;76.60;;;;;;5053418;28;19920;-76
2021/07/07 07:24:53;;;;;;;;;;;16.20;76.20;;;;;;5053225;28;20086;-77
2021/07/07 07:27:20;;;;;;;;;;;16.20;76.20;;;;;;5053437;28;19924;-77
2021/07/07 07:29:46;;;;;;;;;;;16.30;75.70;;;;;;5056979;28;20357;-77
2021/07/07 07:32:13;;;;;;;;;;;16.40;75.90;;;;;;5053294;28;19927;-76
2021/07/07 07:34:39;;;;;;;;;;;16.40;76.00;;;;;;5056465;28;19968;-77
2021/07/07 07:37:08;;;;;;;;;;;16.60;74.70;;;;;;5060484;28;20389;-76
2021/07/07 07:39:43;;;;;;;;;;;16.70;74.60;;;;;;5047639;28;19921;-76
2021/07/07 07:42:13;;;;;;;;;;;16.80;74.50;;;;;;5039683;28;19960;-76
2021/07/07 07:44:40;;;;;;;;;;;17.00;73.30;;;;;;5039468;28;19982;-76
2021/07/07 07:47:06;;;;;;;;;;;17.00;73.00;;;;;;5054178;28;20012;-76
2021/07/07 07:49:33;;;;;;;;;;;17.00;73.20;;;;;;5047179;28;19990;-76
2021/07/07 07:51:59;;;;;;;;;;;17.10;72.50;;;;;;5034808;28;20427;-76
2021/07/07 07:54:25;;;;;;;;;;;17.20;72.70;;;;;;5052863;28;19920;-76
2021/07/07 07:56:51;;;;;;;;;;;17.30;71.90;;;;;;5052359;28;19927;-76
2021/07/07 07:59:17;;;;;;;;;;;17.50;71.50;;;;;;5052679;28;19928;-76
2021/07/07 08:01:43;;;;;;;;;;;17.70;70.90;;;;;;5052624;28;20760;-76
2021/07/07 08:04:09;;;;;;;;;;;18.00;69.80;;;;;;5052031;28;20386;-76
2021/07/07 08:06:36;;;;;;;;;;;18.10;69.50;;;;;;5043740;28;20015;-76
2021/07/07 08:09:02;;;;;;;;;;;18.30;69.20;;;;;;5052536;28;20003;-76
2021/07/07 08:11:29;;;;;;;;;;;18.40;69.30;;;;;;5043758;28;19944;-76
2021/07/07 08:13:55;;;;;;;;;;;18.50;68.20;;;;;;5042770;28;19921;-76
2021/07/07 08:16:21;;;;;;;;;;;18.50;67.30;;;;;;5053589;28;20474;-76
2021/07/07 08:18:48;;;;;;;;;;;18.50;67.80;;;;;;5052281;28;19925;-76
2021/07/07 08:21:15;;;;;;;;;;;18.40;67.10;;;;;;5050577;28;20062;-76
2021/07/07 08:23:41;;;;;;;;;;;18.30;67.00;;;;;;5051120;28;19960;-76
2021/07/07 08:26:07;;;;;;;;;;;18.40;66.80;;;;;;5049757;28;20337;-76
2021/07/07 08:28:33;;;;;;;;;;;18.40;66.70;;;;;;5052506;28;20003;-76
2021/07/07 08:31:00;;;;;;;;;;;18.60;66.80;;;;;;5049211;28;20420;-76
2021/07/07 08:33:26;;;;;;;;;;;18.80;65.40;;;;;;5052135;28;20399;-76
2021/07/07 08:35:52;;;;;;;;;;;19.00;63.70;;;;;;5048869;28;19921;-76
2021/07/07 08:38:18;;;;;;;;;;;19.10;63.50;;;;;;5051915;28;20000;-76
2021/07/07 08:40:44;;;;;;;;;;;19.10;63.70;;;;;;5047088;28;19921;-76
2021/07/07 08:43:11;;;;;;;;;;;19.10;64.40;;;;;;5051787;28;19925;-76
2021/07/07 08:45:37;;;;;;;;;;;19.20;63.10;;;;;;5058270;28;19920;-76
2021/07/07 08:48:03;;;;;;;;;;;19.30;63.70;;;;;;5052036;28;19921;-76
2021/07/07 08:50:30;;;;;;;;;;;19.40;62.90;;;;;;5044711;28;20296;-76
2021/07/07 08:52:59;;;;;;;;;;;19.50;63.10;;;;;;5051827;28;19928;-76
2021/07/07 08:55:26;;;;;;;;;;;19.50;63.80;;;;;;5026026;28;19981;-76
2021/07/07 08:57:52;;;;;;;;;;;19.50;63.20;;;;;;5051488;28;19920;-76
2021/07/07 09:00:21;;;;;;;;;;;19.70;61.80;;;;;;5043224;28;20396;-76
2021/07/07 09:03:11;;;;;;;;;;;19.90;61.90;;;;;;5030285;28;20405;-76
2021/07/07 09:06:10;;;;;;;;;;;20.10;60.70;;;;;;5016078;28;19995;-76
2021/07/07 09:08:37;;;;;;;;;;;20.30;60.50;;;;;;5043151;28;20011;-76
2021/07/07 09:11:15;;;;;;;;;;;20.60;60.40;;;;;;5040962;28;20082;-76
2021/07/07 09:13:41;;;;;;;;;;;20.80;59.80;;;;;;5039786;28;20377;-76
2021/07/07 09:16:11;;;;;;;;;;;20.90;58.70;;;;;;5029622;28;19928;-75
2021/07/07 09:18:37;;;;;;;;;;;20.90;58.30;;;;;;5029355;28;20520;-76
2021/07/07 09:21:21;;;;;;;;;;;21.10;58.00;;;;;;5027607;28;20449;-76
2021/07/07 09:23:47;;;;;;;;;;;21.20;57.80;;;;;;5029290;28;19920;-76
2021/07/07 09:26:13;;;;;;;;;;;21.20;57.50;;;;;;5031746;28;20012;-76
2021/07/07 09:28:42;;;;;;;;;;;21.00;58.00;;;;;;5029333;28;19921;-76
2021/07/07 09:31:34;;;;;;;;;;;20.60;58.50;;;;;;5033100;28;19948;-76
2021/07/07 09:34:10;;;;;;;;;;;20.30;59.30;;;;;;5028589;28;20130;-76
2021/07/07 09:36:37;;;;;;;;;;;20.00;60.20;;;;;;5034128;28;19921;-76
2021/07/07 09:39:04;;;;;;;;;;;19.80;61.20;;;;;;5044422;28;20336;-76
2021/07/07 09:41:30;;;;;;;;;;;19.60;61.40;;;;;;5038221;28;19996;-76
2021/07/07 09:43:57;;;;;;;;;;;19.40;62.40;;;;;;5040651;28;20384;-76
2021/07/07 09:46:23;;;;;;;;;;;19.30;62.70;;;;;;5061248;28;20016;-76
2021/07/07 09:48:50;;;;;;;;;;;19.20;63.30;;;;;;5054655;28;19982;-76
2021/07/07 09:51:16;;;;;;;;;;;19.10;63.70;;;;;;5048709;28;20073;-76
2021/07/07 09:53:43;;;;;;;;;;;19.00;63.70;;;;;;5054896;28;20008;-76
2021/07/07 09:56:09;;;;;;;;;;;18.90;63.90;;;;;;5046873;28;19960;-75
2021/07/07 09:58:35;;;;;;;;;;;18.80;64.40;;;;;;5054598;28;19928;-76
2021/07/07 10:01:01;;;;;;;;;;;18.70;64.30;;;;;;5047103;28;20323;-76
2021/07/07 10:03:27;;;;;;;;;;;18.80;64.50;;;;;;5054632;28;20003;-76
2021/07/07 10:05:54;;;;;;;;;;;18.90;64.80;;;;;;5044462;28;20007;-76
2021/07/07 10:08:20;;;;;;;;;;;19.00;63.50;;;;;;5033502;28;19968;-76
2021/07/07 10:10:47;;;;;;;;;;;19.20;64.10;;;;;;5041466;28;20002;-76
2021/07/07 10:13:15;;;;;;;;;;;19.30;63.20;;;;;;5054663;28;19921;-76
2021/07/07 10:15:41;;;;;;;;;;;19.40;63.30;;;;;;5056679;28;20007;-76
2021/07/07 10:18:08;;;;;;;;;;;19.40;62.10;;;;;;5054419;28;20007;-76
2021/07/07 10:20:35;;;;;;;;;;;19.30;63.10;;;;;;5033968;28;19920;-76
2021/07/07 10:23:02;;;;;;;;;;;19.20;63.80;;;;;;5054408;28;20003;-76
2021/07/07 10:25:29;;;;;;;;;;;19.20;63.30;;;;;;5051023;28;19964;-76
2021/07/07 10:27:57;;;;;;;;;;;19.20;62.90;;;;;;5054167;28;19920;-76
2021/07/07 10:30:42;;;;;;;;;;;19.30;63.20;;;;;;5055886;28;20070;-76
2021/07/07 10:33:11;;;;;;;;;;;19.30;63.10;;;;;;5054024;28;20046;-76
2021/07/07 10:35:39;;;;;;;;;;;19.30;63.40;;;;;;5049949;28;20011;-76
2021/07/07 10:38:05;;;;;;;;;;;19.40;62.60;;;;;;5036123;28;19960;-76
2021/07/07 10:40:36;;;;;;;;;;;19.50;62.20;;;;;;5048338;28;19932;-76
2021/07/07 10:43:02;;;;;;;;;;;19.70;62.10;;;;;;5053863;28;19924;-76
2021/07/07 10:45:29;;;;;;;;;;;19.80;62.00;;;;;;5045705;28;20411;-76
2021/07/07 10:48:15;;;;;;;;;;;19.80;61.70;;;;;;5054130;28;20050;-76
2021/07/07 10:50:42;;;;;;;;;;;19.70;62.40;;;;;;5062176;28;19931;-76
2021/07/07 10:53:21;;;;;;;;;;;19.50;63.70;;;;;;5032598;28;20008;-76
2021/07/07 10:55:47;;;;;;;;;;;19.30;65.80;;;;;;5058916;28;20515;-76
2021/07/07 10:58:33;;;;;;;;;;;19.10;66.40;;;;;;5053886;28;20021;-76
2021/07/07 11:00:59;;;;;;;;;;;19.10;66.60;;;;;;5063914;28;19921;-76
2021/07/07 11:03:35;;;;;;;;;;;19.20;66.40;;;;;;5053846;28;19921;-76
2021/07/07 11:06:20;;;;;;;;;;;19.30;66.60;;;;;;5041009;28;20009;-76
2021/07/07 11:08:47;;;;;;;;;;;19.40;64.70;;;;;;5043384;28;19921;-76
2021/07/07 11:11:23;;;;;;;;;;;19.50;64.00;;;;;;5042081;28;19928;-76
2021/07/07 11:13:50;;;;;;;;;;;19.60;64.60;;;;;;5035261;28;19927;-76
2021/07/07 11:16:23;;;;;;;;;;;19.70;63.60;;;;;;5055283;28;19929;-76
2021/07/07 11:18:52;;;;;;;;;;;19.90;62.60;;;;;;5053604;28;19920;-77
2021/07/07 11:21:19;;;;;;;;;;;19.90;62.90;;;;;;5056960;28;19972;-76
2021/07/07 11:23:47;;;;;;;;;;;20.00;62.60;;;;;;5035663;28;19972;-76
2021/07/07 11:26:13;;;;;;;;;;;20.10;62.00;;;;;;5049366;28;19920;-76
2021/07/07 11:28:41;;;;;;;;;;;20.10;62.00;;;;;;5053629;28;20011;-76
2021/07/07 11:31:07;;;;;;;;;;;20.00;61.80;;;;;;5048336;28;19921;-76
2021/07/07 11:33:34;;;;;;;;;;;20.10;61.20;;;;;;5053257;28;19921;-76
2021/07/07 11:36:00;;;;;;;;;;;20.10;61.20;;;;;;5049147;28;20015;-76
2021/07/07 11:38:27;;;;;;;;;;;20.10;60.80;;;;;;5052795;28;20407;-76
2021/07/07 11:40:54;;;;;;;;;;;20.00;62.00;;;;;;5047136;28;19978;-76
2021/07/07 11:43:25;;;;;;;;;;;19.90;63.00;;;;;;5055517;28;20482;-76
2021/07/07 11:45:57;;;;;;;;;;;19.70;64.00;;;;;;5044281;28;19920;-75
2021/07/07 11:48:36;;;;;;;;;;;19.50;65.10;;;;;;5052626;28;19927;-76
2021/07/07 11:51:07;;;;;;;;;;;19.30;65.80;;;;;;5025803;28;19928;-76
2021/07/07 11:53:37;;;;;;;;;;;19.20;66.60;;;;;;5052751;28;19921;-77
2021/07/07 11:56:08;;;;;;;;;;;19.10;66.00;;;;;;5043785;28;19921;-75
2021/07/07 11:58:43;;;;;;;;;;;19.00;66.40;;;;;;5039162;28;19921;-76
2021/07/07 12:01:28;;;;;;;;;;;19.00;66.70;;;;;;5052434;28;19958;-75
2021/07/07 12:03:55;;;;;;;;;;;18.90;66.20;;;;;;5053787;28;19963;-76
2021/07/07 12:06:47;;;;;;;;;;;19.00;66.30;;;;;;5063399;28;19986;-76
2021/07/07 12:09:16;;;;;;;;;;;19.00;66.30;;;;;;5054353;28;19974;-76
2021/07/07 12:11:49;;;;;;;;;;;19.10;66.40;;;;;;5043353;28;19973;-76
2021/07/07 12:14:15;;;;;;;;;;;19.20;66.00;;;;;;5048251;28;20300;-76
2021/07/07 12:16:44;;;;;;;;;;;19.30;66.30;;;;;;5052294;28;19924;-76
2021/07/07 12:19:11;;;;;;;;;;;19.40;64.80;;;;;;5038248;28;19956;-76
2021/07/07 12:21:42;;;;;;;;;;;19.40;64.20;;;;;;5053118;28;20047;-76
2021/07/07 12:24:10;;;;;;;;;;;19.50;64.00;;;;;;5051011;28;20054;-76
2021/07/07 12:26:40;;;;;;;;;;;19.60;64.40;;;;;;5048964;28;20308;-76
2021/07/07 12:29:09;;;;;;;;;;;19.70;62.80;;;;;;5050247;28;19921;-76
2021/07/07 12:31:39;;;;;;;;;;;19.90;63.00;;;;;;5048726;28;20346;-76
2021/07/07 12:34:07;;;;;;;;;;;20.00;62.10;;;;;;5055275;28;19974;-76
2021/07/07 12:36:34;;;;;;;;;;;20.10;61.10;;;;;;5054481;28;20030;-76
2021/07/07 12:39:09;;;;;;;;;;;20.10;61.80;;;;;;5051618;28;19936;-76
2021/07/07 12:41:36;;;;;;;;;;;20.10;62.40;;;;;;5046830;28;20399;-76
2021/07/07 12:46:52;;;;;;;;;;;20.30;61.50;;;;;;5057468;28;20281;-76
2021/07/07 12:49:24;;;;;;;;;;;20.30;61.70;;;;;;5048217;28;20043;-76
2021/07/07 12:51:50;;;;;;;;;;;20.20;61.20;;;;;;5047722;28;19956;-76
2021/07/07 12:54:20;;;;;;;;;;;20.10;60.30;;;;;;5049031;28;20008;-76
2021/07/07 12:56:59;;;;;;;;;;;20.00;61.10;;;;;;5046005;28;19924;-76
2021/07/07 12:59:29;;;;;;;;;;;19.90;62.50;;;;;;5046642;28;19921;-76
2021/07/07 13:02:05;;;;;;;;;;;20.00;62.00;;;;;;5046666;28;19921;-76
2021/07/07 13:04:31;;;;;;;;;;;20.00;61.50;;;;;;5046074;28;19964;-76
2021/07/07 13:07:05;;;;;;;;;;;20.10;61.40;;;;;;5045752;28;19920;-76
2021/07/07 13:09:31;;;;;;;;;;;20.10;60.90;;;;;;5060808;28;19971;-76
2021/07/07 13:12:05;;;;;;;;;;;20.00;61.10;;;;;;5049015;28;19920;-76
2021/07/07 13:14:32;;;;;;;;;;;20.00;61.60;;;;;;5033881;28;19991;-76
2021/07/07 13:16:58;;;;;;;;;;;19.90;61.80;;;;;;5035663;28;19920;-76
2021/07/07 13:19:26;;;;;;;;;;;19.90;62.00;;;;;;5033712;28;20004;-76
2021/07/07 13:21:52;;;;;;;;;;;19.80;61.60;;;;;;5035916;28;19928;-76
2021/07/07 13:24:21;;;;;;;;;;;19.80;60.90;;;;;;5035563;28;19975;-76
2021/07/07 13:26:48;;;;;;;;;;;19.80;60.30;;;;;;5035185;28;19921;-76
2021/07/07 13:29:16;;;;;;;;;;;19.80;60.30;;;;;;5027273;28;20233;-76
2021/07/07 13:31:42;;;;;;;;;;;19.90;60.40;;;;;;5032125;28;20386;-76
2021/07/07 13:34:09;;;;;;;;;;;19.90;60.80;;;;;;5035431;28;20375;-76
2021/07/07 13:36:35;;;;;;;;;;;19.90;61.00;;;;;;5028286;28;20011;-76
2021/07/07 13:39:08;;;;;;;;;;;19.90;60.80;;;;;;5035529;28;19925;-76
2021/07/07 13:41:35;;;;;;;;;;;19.90;61.80;;;;;;5035002;28;19932;-76
2021/07/07 13:44:01;;;;;;;;;;;19.90;61.60;;;;;;5029305;28;20408;-76
2021/07/07 13:46:27;;;;;;;;;;;19.90;61.30;;;;;;5035250;28;20007;-76
2021/07/07 13:48:53;;;;;;;;;;;19.90;61.30;;;;;;5034759;28;19921;-76
2021/07/07 13:51:19;;;;;;;;;;;19.90;61.60;;;;;;5035208;28;19928;-79
2021/07/07 13:53:46;;;;;;;;;;;19.90;62.10;;;;;;5034619;28;20003;-77
2021/07/07 13:56:12;;;;;;;;;;;19.90;61.70;;;;;;5034953;28;20015;-77
2021/07/07 13:58:38;;;;;;;;;;;19.90;62.20;;;;;;5034882;28;20003;-76
2021/07/07 14:01:04;;;;;;;;;;;19.80;62.30;;;;;;5035015;28;20043;-76
2021/07/07 14:03:30;;;;;;;;;;;19.80;62.20;;;;;;5027247;28;20003;-76
2021/07/07 14:05:57;;;;;;;;;;;19.80;62.30;;;;;;5034924;28;19921;-76
2021/07/07 14:08:23;;;;;;;;;;;19.70;62.30;;;;;;5029447;28;20019;-76
2021/07/07 14:10:49;;;;;;;;;;;19.70;62.90;;;;;;5034654;28;19989;-77
2021/07/07 14:13:15;;;;;;;;;;;19.70;63.10;;;;;;5028560;28;19928;-76
2021/07/07 14:15:42;;;;;;;;;;;19.70;63.30;;;;;;5013386;28;19983;-76
2021/07/07 14:18:08;;;;;;;;;;;19.70;63.10;;;;;;5015085;28;20000;-76
2021/07/07 14:20:35;;;;;;;;;;;19.80;63.50;;;;;;5014898;28;19975;-76